sensor_id;sensor_type;location;lat;lon;timestamp;temperature;humidity
35043;DHT22;21230;51.170;17.024;2023-05-10T00:02:08;9.20;95.20
35043;DHT22;21230;51.170;17.024;2023-05-10T00:04:57;9.20;95.50
35043;DHT22;21230;51.170;17.024;2023-05-10T00:07:39;9.20;95.80
35043;DHT22;21230;51.170;17.024;2023-05-10T00:10:06;9.20;95.90
35043;DHT22;21230;51.170;17.024;2023-05-10T00:12:45;9.10;96.30
35043;DHT22;21230;51.170;17.024;2023-05-10T00:15:20;9.10;96.70
35043;DHT22;21230;51.170;17.024;2023-05-10T00:26:19;8.90;98.40
35043;DHT22;21230;51.170;17.024;2023-05-10T00:32:16;8.80;99.90
35043;DHT22;21230;51.170;17.024;2023-05-10T00:34:58;8.70;99.90
35043;DHT22;21230;51.170;17.024;2023-05-10T00:37:53;8.70;99.90
35043;DHT22;21230;51.170;17.024;2023-05-10T00:40:41;8.70;99.90
35043;DHT22;21230;51.170;17.024;2023-05-10T00:46:30;8.60;99.90
35043;DHT22;21230;51.170;17.024;2023-05-10T00:48:59;8.50;99.90
35043;DHT22;21230;51.170;17.024;2023-05-10T00:51:38;8.50;99.90
35043;DHT22;21230;51.170;17.024;2023-05-10T00:54:43;8.50;99.90
35043;DHT22;21230;51.170;17.024;2023-05-10T00:57:26;8.40;99.90
35043;DHT22;21230;51.170;17.024;2023-05-10T01:00:03;8.40;99.90
35043;DHT22;21230;51.170;17.024;2023-05-10T01:05:45;8.30;99.90
35043;DHT22;21230;51.170;17.024;2023-05-10T01:08:33;8.30;99.90
35043;DHT22;21230;51.170;17.024;2023-05-10T01:14:14;8.20;99.90
35043;DHT22;21230;51.170;17.024;2023-05-10T01:17:04;8.20;99.90
35043;DHT22;21230;51.170;17.024;2023-05-10T01:28:23;8.00;99.90
35043;DHT22;21230;51.170;17.024;2023-05-10T01:42:25;7.60;99.90
35043;DHT22;21230;51.170;17.024;2023-05-10T01:47:54;7.50;99.90
35043;DHT22;21230;51.170;17.024;2023-05-10T01:50:53;7.50;99.90
35043;DHT22;21230;51.170;17.024;2023-05-10T01:53:48;7.50;99.90
35043;DHT22;21230;51.170;17.024;2023-05-10T01:56:29;7.50;99.90
35043;DHT22;21230;51.170;17.024;2023-05-10T01:58:58;7.40;99.90
35043;DHT22;21230;51.170;17.024;2023-05-10T02:04:26;7.40;99.90
35043;DHT22;21230;51.170;17.024;2023-05-10T02:10:06;7.40;99.90
35043;DHT22;21230;51.170;17.024;2023-05-10T02:12:36;7.30;99.90
35043;DHT22;21230;51.170;17.024;2023-05-10T02:15:02;7.30;99.90
35043;DHT22;21230;51.170;17.024;2023-05-10T02:17:30;7.20;99.90
35043;DHT22;21230;51.170;17.024;2023-05-10T02:20:10;7.20;99.90
35043;DHT22;21230;51.170;17.024;2023-05-10T02:22:56;7.20;99.90
35043;DHT22;21230;51.170;17.024;2023-05-10T02:25:23;7.10;99.90
35043;DHT22;21230;51.170;17.024;2023-05-10T02:27:50;7.10;99.90
35043;DHT22;21230;51.170;17.024;2023-05-10T02:30:16;7.10;99.90
35043;DHT22;21230;51.170;17.024;2023-05-10T02:32:43;7.00;99.90
35043;DHT22;21230;51.170;17.024;2023-05-10T02:35:09;7.00;99.90
35043;DHT22;21230;51.170;17.024;2023-05-10T02:37:36;6.90;99.90
35043;DHT22;21230;51.170;17.024;2023-05-10T02:40:02;6.90;99.90
35043;DHT22;21230;51.170;17.024;2023-05-10T02:42:29;6.80;99.90
35043;DHT22;21230;51.170;17.024;2023-05-10T02:44:59;6.80;99.90
35043;DHT22;21230;51.170;17.024;2023-05-10T02:47:25;6.80;99.90
35043;DHT22;21230;51.170;17.024;2023-05-10T02:49:51;6.70;99.90
35043;DHT22;21230;51.170;17.024;2023-05-10T02:52:19;6.70;99.90
35043;DHT22;21230;51.170;17.024;2023-05-10T02:54:48;6.70;99.90
35043;DHT22;21230;51.170;17.024;2023-05-10T02:57:16;6.80;99.90
35043;DHT22;21230;51.170;17.024;2023-05-10T02:59:44;6.80;99.90
35043;DHT22;21230;51.170;17.024;2023-05-10T03:02:12;6.80;99.90
35043;DHT22;21230;51.170;17.024;2023-05-10T03:04:38;6.80;99.90
35043;DHT22;21230;51.170;17.024;2023-05-10T03:07:04;6.80;99.90
35043;DHT22;21230;51.170;17.024;2023-05-10T03:09:30;6.70;99.90
35043;DHT22;21230;51.170;17.024;2023-05-10T03:17:15;6.70;99.90
35043;DHT22;21230;51.170;17.024;2023-05-10T03:22:08;6.70;99.90
35043;DHT22;21230;51.170;17.024;2023-05-10T03:24:35;6.70;99.90
35043;DHT22;21230;51.170;17.024;2023-05-10T03:27:02;6.60;99.90
35043;DHT22;21230;51.170;17.024;2023-05-10T03:29:29;6.70;99.90
35043;DHT22;21230;51.170;17.024;2023-05-10T03:31:57;6.70;99.90
35043;DHT22;21230;51.170;17.024;2023-05-10T03:34:24;6.70;99.90
35043;DHT22;21230;51.170;17.024;2023-05-10T03:36:49;6.80;99.90
35043;DHT22;21230;51.170;17.024;2023-05-10T03:39:15;6.90;99.90
35043;DHT22;21230;51.170;17.024;2023-05-10T03:41:41;6.90;99.90
35043;DHT22;21230;51.170;17.024;2023-05-10T03:44:06;7.00;99.90
35043;DHT22;21230;51.170;17.024;2023-05-10T03:46:32;7.00;99.90
35043;DHT22;21230;51.170;17.024;2023-05-10T03:48:58;7.10;99.90
35043;DHT22;21230;51.170;17.024;2023-05-10T03:51:23;7.20;99.90
35043;DHT22;21230;51.170;17.024;2023-05-10T03:53:53;7.30;99.90
35043;DHT22;21230;51.170;17.024;2023-05-10T03:56:19;7.40;99.90
35043;DHT22;21230;51.170;17.024;2023-05-10T03:58:46;7.50;99.90
35043;DHT22;21230;51.170;17.024;2023-05-10T04:01:11;7.60;99.90
35043;DHT22;21230;51.170;17.024;2023-05-10T04:03:37;7.70;99.90
35043;DHT22;21230;51.170;17.024;2023-05-10T04:06:03;7.80;99.90
35043;DHT22;21230;51.170;17.024;2023-05-10T04:08:29;7.90;99.90
35043;DHT22;21230;51.170;17.024;2023-05-10T04:11:08;8.00;99.90
35043;DHT22;21230;51.170;17.024;2023-05-10T04:13:34;8.10;99.90
35043;DHT22;21230;51.170;17.024;2023-05-10T04:16:00;8.10;99.90
35043;DHT22;21230;51.170;17.024;2023-05-10T04:18:25;8.20;99.90
35043;DHT22;21230;51.170;17.024;2023-05-10T04:20:51;8.30;99.90
35043;DHT22;21230;51.170;17.024;2023-05-10T04:23:17;8.40;99.90
35043;DHT22;21230;51.170;17.024;2023-05-10T04:25:42;8.50;99.90
35043;DHT22;21230;51.170;17.024;2023-05-10T04:28:08;8.60;99.90
35043;DHT22;21230;51.170;17.024;2023-05-10T04:30:34;8.60;99.90
35043;DHT22;21230;51.170;17.024;2023-05-10T04:33:00;8.70;99.90
35043;DHT22;21230;51.170;17.024;2023-05-10T04:35:27;8.80;99.90
35043;DHT22;21230;51.170;17.024;2023-05-10T04:37:53;8.80;99.90
35043;DHT22;21230;51.170;17.024;2023-05-10T04:40:22;8.90;99.90
35043;DHT22;21230;51.170;17.024;2023-05-10T04:42:48;9.00;99.90
35043;DHT22;21230;51.170;17.024;2023-05-10T04:45:30;9.10;99.90
35043;DHT22;21230;51.170;17.024;2023-05-10T04:47:56;9.20;99.90
35043;DHT22;21230;51.170;17.024;2023-05-10T04:50:21;9.30;99.90
35043;DHT22;21230;51.170;17.024;2023-05-10T04:52:47;9.30;99.90
35043;DHT22;21230;51.170;17.024;2023-05-10T04:55:13;9.40;99.90
35043;DHT22;21230;51.170;17.024;2023-05-10T04:57:39;9.50;99.90
35043;DHT22;21230;51.170;17.024;2023-05-10T05:00:04;9.60;99.90
35043;DHT22;21230;51.170;17.024;2023-05-10T05:02:30;9.60;99.90
35043;DHT22;21230;51.170;17.024;2023-05-10T05:04:56;9.70;99.90
35043;DHT22;21230;51.170;17.024;2023-05-10T05:07:23;9.80;99.90
35043;DHT22;21230;51.170;17.024;2023-05-10T05:09:48;9.90;99.90
35043;DHT22;21230;51.170;17.024;2023-05-10T05:12:14;10.00;99.90
35043;DHT22;21230;51.170;17.024;2023-05-10T05:14:41;10.20;99.90
35043;DHT22;21230;51.170;17.024;2023-05-10T05:17:07;10.30;99.90
35043;DHT22;21230;51.170;17.024;2023-05-10T05:19:32;10.40;99.40
35043;DHT22;21230;51.170;17.024;2023-05-10T05:21:58;10.50;98.60
35043;DHT22;21230;51.170;17.024;2023-05-10T05:24:25;10.60;94.60
35043;DHT22;21230;51.170;17.024;2023-05-10T05:26:51;10.70;95.20
35043;DHT22;21230;51.170;17.024;2023-05-10T05:29:17;10.80;92.00
35043;DHT22;21230;51.170;17.024;2023-05-10T05:31:42;10.80;90.90
35043;DHT22;21230;51.170;17.024;2023-05-10T05:34:11;10.90;91.00
35043;DHT22;21230;51.170;17.024;2023-05-10T05:36:37;10.90;89.00
35043;DHT22;21230;51.170;17.024;2023-05-10T05:39:05;11.00;89.10
35043;DHT22;21230;51.170;17.024;2023-05-10T05:41:31;11.10;89.80
35043;DHT22;21230;51.170;17.024;2023-05-10T05:43:57;11.20;88.20
35043;DHT22;21230;51.170;17.024;2023-05-10T05:46:23;11.30;86.50
35043;DHT22;21230;51.170;17.024;2023-05-10T05:48:53;11.40;85.40
35043;DHT22;21230;51.170;17.024;2023-05-10T05:51:19;11.50;85.70
35043;DHT22;21230;51.170;17.024;2023-05-10T05:53:45;11.60;82.70
35043;DHT22;21230;51.170;17.024;2023-05-10T05:56:11;11.70;83.10
35043;DHT22;21230;51.170;17.024;2023-05-10T05:58:37;11.80;79.60
35043;DHT22;21230;51.170;17.024;2023-05-10T06:01:02;11.90;81.10
35043;DHT22;21230;51.170;17.024;2023-05-10T06:03:28;12.00;78.00
35043;DHT22;21230;51.170;17.024;2023-05-10T06:05:54;12.00;76.40
35043;DHT22;21230;51.170;17.024;2023-05-10T06:08:19;12.10;76.00
35043;DHT22;21230;51.170;17.024;2023-05-10T06:10:45;12.20;75.30
35043;DHT22;21230;51.170;17.024;2023-05-10T06:13:11;12.30;75.50
35043;DHT22;21230;51.170;17.024;2023-05-10T06:15:38;12.30;73.90
35043;DHT22;21230;51.170;17.024;2023-05-10T06:18:05;12.40;73.10
35043;DHT22;21230;51.170;17.024;2023-05-10T06:20:31;12.50;74.50
35043;DHT22;21230;51.170;17.024;2023-05-10T06:22:57;12.60;73.80
35043;DHT22;21230;51.170;17.024;2023-05-10T06:25:23;12.70;73.40
35043;DHT22;21230;51.170;17.024;2023-05-10T06:27:48;12.80;72.30
35043;DHT22;21230;51.170;17.024;2023-05-10T06:30:14;12.90;71.50
35043;DHT22;21230;51.170;17.024;2023-05-10T06:32:40;12.90;70.60
35043;DHT22;21230;51.170;17.024;2023-05-10T06:35:06;13.00;70.50
35043;DHT22;21230;51.170;17.024;2023-05-10T06:37:36;13.10;71.30
35043;DHT22;21230;51.170;17.024;2023-05-10T06:40:01;13.20;71.40
35043;DHT22;21230;51.170;17.024;2023-05-10T06:42:27;13.30;68.70
35043;DHT22;21230;51.170;17.024;2023-05-10T06:44:53;13.40;68.40
35043;DHT22;21230;51.170;17.024;2023-05-10T06:47:18;13.50;67.50
35043;DHT22;21230;51.170;17.024;2023-05-10T06:49:44;13.50;66.90
35043;DHT22;21230;51.170;17.024;2023-05-10T06:52:09;13.60;67.60
35043;DHT22;21230;51.170;17.024;2023-05-10T06:54:35;13.70;65.10
35043;DHT22;21230;51.170;17.024;2023-05-10T06:57:01;13.70;65.20
35043;DHT22;21230;51.170;17.024;2023-05-10T06:59:28;13.80;65.30
35043;DHT22;21230;51.170;17.024;2023-05-10T07:01:54;13.90;64.50
35043;DHT22;21230;51.170;17.024;2023-05-10T07:04:19;14.00;64.20
35043;DHT22;21230;51.170;17.024;2023-05-10T07:06:45;14.00;63.90
35043;DHT22;21230;51.170;17.024;2023-05-10T07:09:11;14.00;62.40
35043;DHT22;21230;51.170;17.024;2023-05-10T07:11:38;14.10;64.80
35043;DHT22;21230;51.170;17.024;2023-05-10T07:14:04;14.30;63.70
35043;DHT22;21230;51.170;17.024;2023-05-10T07:16:30;14.40;63.00
35043;DHT22;21230;51.170;17.024;2023-05-10T07:18:55;14.40;62.50
35043;DHT22;21230;51.170;17.024;2023-05-10T07:21:21;14.50;61.90
35043;DHT22;21230;51.170;17.024;2023-05-10T07:23:49;14.60;62.30
35043;DHT22;21230;51.170;17.024;2023-05-10T07:26:15;14.80;63.10
35043;DHT22;21230;51.170;17.024;2023-05-10T07:28:41;14.90;63.00
35043;DHT22;21230;51.170;17.024;2023-05-10T07:31:06;15.00;61.00
35043;DHT22;21230;51.170;17.024;2023-05-10T07:33:35;15.00;61.00
35043;DHT22;21230;51.170;17.024;2023-05-10T07:36:01;15.10;61.30
35043;DHT22;21230;51.170;17.024;2023-05-10T07:38:26;15.10;59.90
35043;DHT22;21230;51.170;17.024;2023-05-10T07:40:52;15.10;60.10
35043;DHT22;21230;51.170;17.024;2023-05-10T07:43:18;15.20;62.50
35043;DHT22;21230;51.170;17.024;2023-05-10T07:45:43;15.30;60.50
35043;DHT22;21230;51.170;17.024;2023-05-10T07:48:09;15.50;61.10
35043;DHT22;21230;51.170;17.024;2023-05-10T07:50:35;15.50;60.40
35043;DHT22;21230;51.170;17.024;2023-05-10T07:53:00;15.50;60.50
35043;DHT22;21230;51.170;17.024;2023-05-10T07:55:26;15.50;60.50
35043;DHT22;21230;51.170;17.024;2023-05-10T07:57:52;15.70;61.80
35043;DHT22;21230;51.170;17.024;2023-05-10T08:00:18;15.70;61.40
35043;DHT22;21230;51.170;17.024;2023-05-10T08:02:44;15.80;59.90
35043;DHT22;21230;51.170;17.024;2023-05-10T08:05:10;15.90;61.00
35043;DHT22;21230;51.170;17.024;2023-05-10T08:07:35;16.00;60.80
35043;DHT22;21230;51.170;17.024;2023-05-10T08:10:02;16.10;60.00
35043;DHT22;21230;51.170;17.024;2023-05-10T08:12:27;16.10;59.50
35043;DHT22;21230;51.170;17.024;2023-05-10T08:14:53;16.10;59.10
35043;DHT22;21230;51.170;17.024;2023-05-10T08:17:19;16.20;59.10
35043;DHT22;21230;51.170;17.024;2023-05-10T08:19:44;16.30;60.60
35043;DHT22;21230;51.170;17.024;2023-05-10T08:22:10;16.40;58.90
35043;DHT22;21230;51.170;17.024;2023-05-10T08:24:36;16.40;58.80
35043;DHT22;21230;51.170;17.024;2023-05-10T08:27:04;16.50;60.40
35043;DHT22;21230;51.170;17.024;2023-05-10T08:29:30;16.50;58.40
35043;DHT22;21230;51.170;17.024;2023-05-10T08:31:56;16.50;58.90
35043;DHT22;21230;51.170;17.024;2023-05-10T08:34:22;16.60;58.30
35043;DHT22;21230;51.170;17.024;2023-05-10T08:36:54;16.80;58.40
35043;DHT22;21230;51.170;17.024;2023-05-10T08:39:20;17.00;57.60
35043;DHT22;21230;51.170;17.024;2023-05-10T08:41:46;17.00;56.70
35043;DHT22;21230;51.170;17.024;2023-05-10T08:44:13;17.10;56.40
35043;DHT22;21230;51.170;17.024;2023-05-10T08:46:39;17.30;57.40
35043;DHT22;21230;51.170;17.024;2023-05-10T08:49:09;17.30;56.90
35043;DHT22;21230;51.170;17.024;2023-05-10T08:51:37;17.30;55.60
35043;DHT22;21230;51.170;17.024;2023-05-10T08:54:05;17.30;55.60
35043;DHT22;21230;51.170;17.024;2023-05-10T08:56:31;17.20;53.00
35043;DHT22;21230;51.170;17.024;2023-05-10T08:58:58;17.30;54.80
35043;DHT22;21230;51.170;17.024;2023-05-10T09:01:24;17.30;55.20
35043;DHT22;21230;51.170;17.024;2023-05-10T09:03:50;17.40;54.80
35043;DHT22;21230;51.170;17.024;2023-05-10T09:06:16;17.40;54.90
35043;DHT22;21230;51.170;17.024;2023-05-10T09:08:42;17.40;53.50
35043;DHT22;21230;51.170;17.024;2023-05-10T09:11:09;17.40;52.50
35043;DHT22;21230;51.170;17.024;2023-05-10T09:13:36;17.40;53.10
35043;DHT22;21230;51.170;17.024;2023-05-10T09:16:02;17.50;53.40
35043;DHT22;21230;51.170;17.024;2023-05-10T09:18:28;17.70;53.40
35043;DHT22;21230;51.170;17.024;2023-05-10T09:20:54;17.70;51.90
35043;DHT22;21230;51.170;17.024;2023-05-10T09:23:20;17.80;53.30
35043;DHT22;21230;51.170;17.024;2023-05-10T09:25:46;17.80;51.60
35043;DHT22;21230;51.170;17.024;2023-05-10T09:28:12;17.90;52.00
35043;DHT22;21230;51.170;17.024;2023-05-10T09:30:37;17.90;51.60
35043;DHT22;21230;51.170;17.024;2023-05-10T09:33:03;18.00;50.60
35043;DHT22;21230;51.170;17.024;2023-05-10T09:35:31;18.00;52.10
35043;DHT22;21230;51.170;17.024;2023-05-10T09:38:02;18.00;50.30
35043;DHT22;21230;51.170;17.024;2023-05-10T09:40:29;18.00;51.50
35043;DHT22;21230;51.170;17.024;2023-05-10T09:42:57;18.20;50.90
35043;DHT22;21230;51.170;17.024;2023-05-10T09:45:26;18.30;52.50
35043;DHT22;21230;51.170;17.024;2023-05-10T09:47:52;18.30;50.60
35043;DHT22;21230;51.170;17.024;2023-05-10T09:50:19;18.50;50.50
35043;DHT22;21230;51.170;17.024;2023-05-10T09:52:48;18.50;49.80
35043;DHT22;21230;51.170;17.024;2023-05-10T09:55:15;18.60;49.90
35043;DHT22;21230;51.170;17.024;2023-05-10T09:57:41;18.40;48.10
35043;DHT22;21230;51.170;17.024;2023-05-10T10:00:10;18.50;50.50
35043;DHT22;21230;51.170;17.024;2023-05-10T10:02:41;18.50;49.30
35043;DHT22;21230;51.170;17.024;2023-05-10T10:05:07;18.30;48.80
35043;DHT22;21230;51.170;17.024;2023-05-10T10:07:45;18.40;47.60
35043;DHT22;21230;51.170;17.024;2023-05-10T10:10:15;18.50;47.30
35043;DHT22;21230;51.170;17.024;2023-05-10T10:12:41;18.50;46.90
35043;DHT22;21230;51.170;17.024;2023-05-10T10:15:07;18.60;46.70
35043;DHT22;21230;51.170;17.024;2023-05-10T10:17:34;18.70;47.70
35043;DHT22;21230;51.170;17.024;2023-05-10T10:20:02;18.90;48.20
35043;DHT22;21230;51.170;17.024;2023-05-10T10:22:28;18.90;44.50
35043;DHT22;21230;51.170;17.024;2023-05-10T10:24:54;18.90;44.80
35043;DHT22;21230;51.170;17.024;2023-05-10T10:30:09;18.70;45.20
35043;DHT22;21230;51.170;17.024;2023-05-10T10:35:21;18.60;44.60
35043;DHT22;21230;51.170;17.024;2023-05-10T10:37:47;18.50;43.70
35043;DHT22;21230;51.170;17.024;2023-05-10T10:40:25;18.50;43.10
35043;DHT22;21230;51.170;17.024;2023-05-10T10:42:51;18.60;46.00
35043;DHT22;21230;51.170;17.024;2023-05-10T10:45:17;18.90;45.10
35043;DHT22;21230;51.170;17.024;2023-05-10T10:47:43;19.10;45.50
35043;DHT22;21230;51.170;17.024;2023-05-10T10:50:09;19.30;44.50
35043;DHT22;21230;51.170;17.024;2023-05-10T10:52:39;19.30;41.70
35043;DHT22;21230;51.170;17.024;2023-05-10T10:55:09;19.20;42.20
35043;DHT22;21230;51.170;17.024;2023-05-10T11:02:47;19.50;43.30
35043;DHT22;21230;51.170;17.024;2023-05-10T11:10:20;19.50;40.50
35043;DHT22;21230;51.170;17.024;2023-05-10T11:15:36;19.80;43.40
35043;DHT22;21230;51.170;17.024;2023-05-10T11:20:51;19.90;40.00
35043;DHT22;21230;51.170;17.024;2023-05-10T11:23:18;20.10;38.90
35043;DHT22;21230;51.170;17.024;2023-05-10T11:25:45;20.10;39.60
35043;DHT22;21230;51.170;17.024;2023-05-10T11:28:11;19.90;39.90
35043;DHT22;21230;51.170;17.024;2023-05-10T11:30:40;19.90;40.00
35043;DHT22;21230;51.170;17.024;2023-05-10T11:33:06;19.70;38.60
35043;DHT22;21230;51.170;17.024;2023-05-10T11:35:38;19.70;39.40
35043;DHT22;21230;51.170;17.024;2023-05-10T11:38:07;19.50;39.80
35043;DHT22;21230;51.170;17.024;2023-05-10T11:40:34;19.40;39.20
35043;DHT22;21230;51.170;17.024;2023-05-10T11:42:59;19.40;40.90
35043;DHT22;21230;51.170;17.024;2023-05-10T11:45:25;19.40;39.70
35043;DHT22;21230;51.170;17.024;2023-05-10T11:47:51;19.30;43.30
35043;DHT22;21230;51.170;17.024;2023-05-10T11:50:20;19.40;39.10
35043;DHT22;21230;51.170;17.024;2023-05-10T11:52:50;19.50;39.60
35043;DHT22;21230;51.170;17.024;2023-05-10T11:55:15;19.80;38.20
35043;DHT22;21230;51.170;17.024;2023-05-10T11:57:41;20.10;40.60
35043;DHT22;21230;51.170;17.024;2023-05-10T12:00:09;20.20;36.80
35043;DHT22;21230;51.170;17.024;2023-05-10T12:02:35;20.20;36.70
35043;DHT22;21230;51.170;17.024;2023-05-10T12:05:01;20.00;35.50
35043;DHT22;21230;51.170;17.024;2023-05-10T12:07:28;19.80;37.80
35043;DHT22;21230;51.170;17.024;2023-05-10T12:10:08;19.60;37.00
35043;DHT22;21230;51.170;17.024;2023-05-10T12:12:39;19.70;36.50
35043;DHT22;21230;51.170;17.024;2023-05-10T12:15:25;19.70;38.20
35043;DHT22;21230;51.170;17.024;2023-05-10T12:17:51;19.60;36.20
35043;DHT22;21230;51.170;17.024;2023-05-10T12:20:17;19.30;35.90
35043;DHT22;21230;51.170;17.024;2023-05-10T12:22:45;19.40;38.90
35043;DHT22;21230;51.170;17.024;2023-05-10T12:25:12;19.40;36.90
35043;DHT22;21230;51.170;17.024;2023-05-10T12:27:38;19.40;38.40
35043;DHT22;21230;51.170;17.024;2023-05-10T12:30:06;19.60;37.00
35043;DHT22;21230;51.170;17.024;2023-05-10T12:32:39;19.80;36.40
35043;DHT22;21230;51.170;17.024;2023-05-10T12:35:05;20.00;34.40
35043;DHT22;21230;51.170;17.024;2023-05-10T12:37:34;20.00;35.80
35043;DHT22;21230;51.170;17.024;2023-05-10T12:40:10;20.00;34.60
35043;DHT22;21230;51.170;17.024;2023-05-10T12:42:36;19.70;34.20
35043;DHT22;21230;51.170;17.024;2023-05-10T12:45:08;19.50;34.70
35043;DHT22;21230;51.170;17.024;2023-05-10T12:47:34;19.50;34.70
35043;DHT22;21230;51.170;17.024;2023-05-10T12:50:00;19.50;34.90
35043;DHT22;21230;51.170;17.024;2023-05-10T12:52:26;19.60;35.10
35043;DHT22;21230;51.170;17.024;2023-05-10T12:54:52;19.50;34.10
35043;DHT22;21230;51.170;17.024;2023-05-10T12:57:18;19.60;34.80
35043;DHT22;21230;51.170;17.024;2023-05-10T12:59:44;19.80;36.70
35043;DHT22;21230;51.170;17.024;2023-05-10T13:02:10;19.90;35.50
35043;DHT22;21230;51.170;17.024;2023-05-10T13:04:36;19.90;34.20
35043;DHT22;21230;51.170;17.024;2023-05-10T13:07:05;19.80;33.70
35043;DHT22;21230;51.170;17.024;2023-05-10T13:09:31;19.80;33.40
35043;DHT22;21230;51.170;17.024;2023-05-10T13:11:57;19.70;33.40
35043;DHT22;21230;51.170;17.024;2023-05-10T13:14:22;19.70;32.00
35043;DHT22;21230;51.170;17.024;2023-05-10T13:16:48;19.70;33.40
35043;DHT22;21230;51.170;17.024;2023-05-10T13:19:13;19.60;33.60
35043;DHT22;21230;51.170;17.024;2023-05-10T13:21:39;19.50;33.90
35043;DHT22;21230;51.170;17.024;2023-05-10T13:24:06;19.50;33.80
35043;DHT22;21230;51.170;17.024;2023-05-10T13:26:32;19.50;33.70
35043;DHT22;21230;51.170;17.024;2023-05-10T13:28:58;19.50;34.00
35043;DHT22;21230;51.170;17.024;2023-05-10T13:31:24;19.60;33.90
35043;DHT22;21230;51.170;17.024;2023-05-10T13:33:52;19.60;34.00
35043;DHT22;21230;51.170;17.024;2023-05-10T13:36:18;19.60;33.30
35043;DHT22;21230;51.170;17.024;2023-05-10T13:38:44;19.60;33.30
35043;DHT22;21230;51.170;17.024;2023-05-10T13:41:10;19.70;34.80
35043;DHT22;21230;51.170;17.024;2023-05-10T13:43:35;19.80;34.30
35043;DHT22;21230;51.170;17.024;2023-05-10T13:46:01;19.90;34.10
35043;DHT22;21230;51.170;17.024;2023-05-10T13:48:28;20.20;33.90
35043;DHT22;21230;51.170;17.024;2023-05-10T13:50:53;20.40;31.70
35043;DHT22;21230;51.170;17.024;2023-05-10T13:53:19;20.40;30.90
35043;DHT22;21230;51.170;17.024;2023-05-10T13:55:44;20.30;30.00
35043;DHT22;21230;51.170;17.024;2023-05-10T13:58:10;20.10;30.60
35043;DHT22;21230;51.170;17.024;2023-05-10T14:00:36;20.10;30.30
35043;DHT22;21230;51.170;17.024;2023-05-10T14:03:01;20.20;31.80
35043;DHT22;21230;51.170;17.024;2023-05-10T14:05:29;20.20;31.40
35043;DHT22;21230;51.170;17.024;2023-05-10T14:07:55;20.30;29.80
35043;DHT22;21230;51.170;17.024;2023-05-10T14:10:21;20.10;29.00
35043;DHT22;21230;51.170;17.024;2023-05-10T14:12:49;19.90;29.90
35043;DHT22;21230;51.170;17.024;2023-05-10T14:15:15;19.90;30.40
35043;DHT22;21230;51.170;17.024;2023-05-10T14:17:43;19.90;30.10
35043;DHT22;21230;51.170;17.024;2023-05-10T14:20:09;19.90;30.30
35043;DHT22;21230;51.170;17.024;2023-05-10T14:22:47;20.00;31.00
35043;DHT22;21230;51.170;17.024;2023-05-10T14:25:13;20.20;30.00
35043;DHT22;21230;51.170;17.024;2023-05-10T14:27:39;20.20;29.20
35043;DHT22;21230;51.170;17.024;2023-05-10T14:30:05;20.00;29.00
35043;DHT22;21230;51.170;17.024;2023-05-10T14:32:34;20.00;29.80
35043;DHT22;21230;51.170;17.024;2023-05-10T14:35:02;20.00;29.20
35043;DHT22;21230;51.170;17.024;2023-05-10T14:37:28;19.90;29.10
35043;DHT22;21230;51.170;17.024;2023-05-10T14:39:54;19.90;29.40
35043;DHT22;21230;51.170;17.024;2023-05-10T14:42:23;19.90;28.70
35043;DHT22;21230;51.170;17.024;2023-05-10T14:44:52;20.00;29.40
35043;DHT22;21230;51.170;17.024;2023-05-10T14:47:19;20.20;29.70
35043;DHT22;21230;51.170;17.024;2023-05-10T14:49:45;20.30;29.10
35043;DHT22;21230;51.170;17.024;2023-05-10T14:52:11;20.40;29.50
35043;DHT22;21230;51.170;17.024;2023-05-10T14:54:37;20.50;29.80
35043;DHT22;21230;51.170;17.024;2023-05-10T14:57:06;20.50;28.50
35043;DHT22;21230;51.170;17.024;2023-05-10T14:59:32;20.40;28.70
35043;DHT22;21230;51.170;17.024;2023-05-10T15:01:59;20.30;27.90
35043;DHT22;21230;51.170;17.024;2023-05-10T15:04:25;20.30;28.30
35043;DHT22;21230;51.170;17.024;2023-05-10T15:06:50;20.20;28.20
35043;DHT22;21230;51.170;17.024;2023-05-10T15:09:17;20.20;29.00
35043;DHT22;21230;51.170;17.024;2023-05-10T15:11:44;20.20;28.30
35043;DHT22;21230;51.170;17.024;2023-05-10T15:14:09;20.20;27.80
35043;DHT22;21230;51.170;17.024;2023-05-10T15:16:35;20.10;28.30
35043;DHT22;21230;51.170;17.024;2023-05-10T15:19:02;20.10;28.00
35043;DHT22;21230;51.170;17.024;2023-05-10T15:21:27;20.20;29.10
35043;DHT22;21230;51.170;17.024;2023-05-10T15:23:53;20.20;29.50
35043;DHT22;21230;51.170;17.024;2023-05-10T15:26:19;20.10;28.00
35043;DHT22;21230;51.170;17.024;2023-05-10T15:28:45;20.00;29.40
35043;DHT22;21230;51.170;17.024;2023-05-10T15:31:14;20.10;29.00
35043;DHT22;21230;51.170;17.024;2023-05-10T15:33:39;20.10;28.10
35043;DHT22;21230;51.170;17.024;2023-05-10T15:36:06;20.10;26.50
35043;DHT22;21230;51.170;17.024;2023-05-10T15:38:32;20.10;26.10
35043;DHT22;21230;51.170;17.024;2023-05-10T15:40:58;20.10;26.00
35043;DHT22;21230;51.170;17.024;2023-05-10T15:43:24;20.00;26.30
35043;DHT22;21230;51.170;17.024;2023-05-10T15:45:49;20.00;27.10
35043;DHT22;21230;51.170;17.024;2023-05-10T15:48:15;20.00;25.90
35043;DHT22;21230;51.170;17.024;2023-05-10T15:50:41;19.90;26.50
35043;DHT22;21230;51.170;17.024;2023-05-10T15:53:07;20.00;26.60
35043;DHT22;21230;51.170;17.024;2023-05-10T15:55:33;20.00;26.70
35043;DHT22;21230;51.170;17.024;2023-05-10T15:57:59;20.10;27.00
35043;DHT22;21230;51.170;17.024;2023-05-10T16:00:25;20.00;27.80
35043;DHT22;21230;51.170;17.024;2023-05-10T16:02:51;19.90;27.30
35043;DHT22;21230;51.170;17.024;2023-05-10T16:05:19;19.90;27.90
35043;DHT22;21230;51.170;17.024;2023-05-10T16:07:45;19.90;28.70
35043;DHT22;21230;51.170;17.024;2023-05-10T16:10:11;19.90;28.70
35043;DHT22;21230;51.170;17.024;2023-05-10T16:12:38;19.90;29.10
35043;DHT22;21230;51.170;17.024;2023-05-10T16:15:04;20.00;29.90
35043;DHT22;21230;51.170;17.024;2023-05-10T16:17:30;20.00;29.50
35043;DHT22;21230;51.170;17.024;2023-05-10T16:19:57;20.00;27.70
35043;DHT22;21230;51.170;17.024;2023-05-10T16:22:24;20.00;27.30
35043;DHT22;21230;51.170;17.024;2023-05-10T16:24:51;19.90;28.70
35043;DHT22;21230;51.170;17.024;2023-05-10T16:27:19;19.90;28.90
35043;DHT22;21230;51.170;17.024;2023-05-10T16:29:45;19.80;28.30
35043;DHT22;21230;51.170;17.024;2023-05-10T16:32:11;19.80;29.00
35043;DHT22;21230;51.170;17.024;2023-05-10T16:34:36;19.70;29.00
35043;DHT22;21230;51.170;17.024;2023-05-10T16:37:02;19.70;29.20
35043;DHT22;21230;51.170;17.024;2023-05-10T16:39:28;19.80;29.00
35043;DHT22;21230;51.170;17.024;2023-05-10T16:41:53;20.00;29.40
35043;DHT22;21230;51.170;17.024;2023-05-10T16:44:21;20.20;30.00